Time;durP1;ratioP1;P1;durP2;ratioP2;P2;SDS_P1;SDS_P2;PMS_P1;PMS_P2;Temp;Humidity;BMP_temperature;BMP_pressure;BME280_temperature;BME280_humidity;BME280_pressure;Samples;Min_cycle;Max_cycle;Signal;HPM_P1;HPM_P2
2024/02/29 00:00:16;;;;;;;166.43;59.20;;;0.40;99.90;;;;;;5104203;27;20036;-79
2024/02/29 00:03:08;;;;;;;165.65;61.30;;;0.40;99.90;;;;;;5106352;27;20042;-81
2024/02/29 00:05:56;;;;;;;183.00;64.60;;;0.40;99.90;;;;;;5109322;27;20035;-79
2024/02/29 00:08:45;;;;;;;180.20;61.33;;;0.50;99.90;;;;;;5109407;27;20045;-79
2024/02/29 00:11:33;;;;;;;185.55;62.92;;;0.50;99.90;;;;;;5095252;27;20557;-80
2024/02/29 00:14:21;;;;;;;180.55;62.45;;;0.50;99.90;;;;;;5089920;27;20200;-81
2024/02/29 00:17:10;;;;;;;182.45;64.85;;;0.50;99.90;;;;;;5108252;27;20118;-80
2024/02/29 00:20:01;;;;;;;177.27;62.92;;;0.60;99.90;;;;;;5087881;28;20402;-82
2024/02/29 00:22:49;;;;;;;190.95;65.40;;;0.70;99.90;;;;;;5106648;27;20046;-80
2024/02/29 00:25:36;;;;;;;180.65;62.55;;;0.70;99.90;;;;;;5092148;27;20093;-79
2024/02/29 00:28:24;;;;;;;175.63;61.97;;;0.60;99.90;;;;;;5106649;27;20044;-81
2024/02/29 00:31:11;;;;;;;189.90;65.68;;;0.50;99.90;;;;;;5111413;27;20141;-75
2024/02/29 00:34:00;;;;;;;200.02;64.93;;;0.40;99.90;;;;;;5095346;27;20099;-77
2024/02/29 00:36:51;;;;;;;179.90;60.22;;;0.30;99.90;;;;;;5101743;28;20047;-78
2024/02/29 00:39:39;;;;;;;192.40;62.53;;;0.30;99.90;;;;;;5134550;27;20027;-76
2024/02/29 00:42:28;;;;;;;186.98;60.80;;;0.20;99.90;;;;;;5123658;27;20036;-79
2024/02/29 00:45:20;;;;;;;181.07;59.83;;;0.10;99.90;;;;;;5097292;27;20075;-80
2024/02/29 00:48:08;;;;;;;164.32;61.92;;;0.00;99.90;;;;;;5103667;27;20066;-80
2024/02/29 00:50:55;;;;;;;181.80;62.80;;;0.00;99.90;;;;;;5110485;27;20032;-78
2024/02/29 00:53:44;;;;;;;174.05;60.92;;;-0.10;99.90;;;;;;5107127;27;20059;-82
2024/02/29 00:56:32;;;;;;;176.25;61.33;;;-0.10;99.90;;;;;;5103390;27;20050;-79
2024/02/29 00:59:19;;;;;;;184.43;63.05;;;-0.20;99.90;;;;;;5105070;28;20044;-78
2024/02/29 01:02:06;;;;;;;184.77;61.67;;;-0.20;99.90;;;;;;5107021;27;20058;-80
2024/02/29 01:04:54;;;;;;;177.80;61.55;;;-0.30;99.90;;;;;;5083165;27;20046;-81
2024/02/29 01:07:43;;;;;;;187.70;61.65;;;-0.30;99.90;;;;;;5105212;27;20098;-79
2024/02/29 01:10:32;;;;;;;196.10;62.65;;;-0.40;99.90;;;;;;5099180;27;20536;-80
2024/02/29 01:13:21;;;;;;;182.10;61.47;;;-0.40;99.90;;;;;;5091262;28;20061;-79
2024/02/29 01:16:09;;;;;;;200.88;63.80;;;-0.50;99.90;;;;;;5107866;27;20371;-81
2024/02/29 01:18:58;;;;;;;207.95;66.85;;;-0.50;99.90;;;;;;5109916;27;20047;-79
2024/02/29 01:21:45;;;;;;;204.20;64.68;;;-0.40;99.90;;;;;;5111085;27;20058;-79
2024/02/29 01:24:34;;;;;;;198.55;64.88;;;-0.40;99.90;;;;;;5088656;27;20040;-78
2024/02/29 01:27:21;;;;;;;190.85;63.20;;;-0.30;99.90;;;;;;5121585;27;20040;-78
2024/02/29 01:30:10;;;;;;;223.48;67.18;;;-0.30;99.90;;;;;;5117805;27;20101;-79
2024/02/29 01:32:57;;;;;;;208.77;62.65;;;-0.20;99.90;;;;;;5117953;27;20131;-76
2024/02/29 01:35:45;;;;;;;216.80;66.38;;;-0.20;99.90;;;;;;5115487;27;20046;-77
2024/02/29 01:38:32;;;;;;;224.30;64.88;;;-0.20;99.90;;;;;;5122926;27;20112;-79
2024/02/29 01:41:21;;;;;;;215.23;68.93;;;0.00;99.90;;;;;;5100176;27;20051;-76
2024/02/29 01:44:09;;;;;;;239.20;70.82;;;0.10;99.90;;;;;;5114114;28;20043;-75
2024/02/29 01:46:57;;;;;;;252.60;73.80;;;0.20;99.90;;;;;;5114026;28;20162;-76
2024/02/29 01:49:46;;;;;;;247.65;72.88;;;0.30;99.90;;;;;;5108065;27;20039;-78
2024/02/29 01:52:36;;;;;;;259.98;72.90;;;0.40;99.90;;;;;;5118537;27;20032;-81
2024/02/29 01:55:24;;;;;;;259.55;75.95;;;0.40;99.90;;;;;;5109765;27;20605;-79
2024/02/29 01:58:12;;;;;;;243.80;75.10;;;0.30;99.90;;;;;;5114286;27;20158;-78
2024/02/29 02:01:02;;;;;;;241.90;77.15;;;0.40;99.90;;;;;;5115153;27;20134;-79
2024/02/29 02:03:49;;;;;;;238.10;74.50;;;0.40;99.90;;;;;;5102843;27;20154;-78
2024/02/29 02:06:37;;;;;;;235.63;73.05;;;0.30;99.90;;;;;;5100242;27;20035;-76
2024/02/29 02:09:34;;;;;;;264.80;74.65;;;0.30;99.90;;;;;;5106940;28;20036;-79
2024/02/29 02:12:24;;;;;;;237.88;73.40;;;0.20;99.90;;;;;;5130924;27;20036;-79
2024/02/29 02:15:13;;;;;;;221.52;70.15;;;0.10;99.90;;;;;;5113401;27;20605;-77
2024/02/29 02:18:00;;;;;;;227.57;71.30;;;0.10;99.90;;;;;;5122133;27;20036;-80
2024/02/29 02:20:49;;;;;;;231.13;70.32;;;0.10;99.90;;;;;;5100151;28;20143;-76
2024/02/29 02:23:38;;;;;;;247.82;72.88;;;0.10;99.90;;;;;;5118784;27;20067;-78
2024/02/29 02:26:26;;;;;;;261.90;76.10;;;0.00;99.90;;;;;;5117031;28;20425;-79
2024/02/29 02:29:13;;;;;;;235.68;74.45;;;0.00;99.90;;;;;;5106801;27;20036;-80
2024/02/29 02:32:00;;;;;;;250.15;77.43;;;0.20;99.90;;;;;;5099184;27;20147;-78
2024/02/29 02:34:48;;;;;;;260.83;81.68;;;0.20;99.90;;;;;;5112940;28;20045;-76
2024/02/29 02:37:37;;;;;;;270.73;84.40;;;0.50;99.90;;;;;;5118880;28;20207;-77
2024/02/29 02:40:24;;;;;;;274.70;87.32;;;0.70;99.90;;;;;;5108097;28;20048;-80
2024/02/29 02:43:12;;;;;;;269.42;87.45;;;0.70;99.90;;;;;;5127476;27;20051;-76
2024/02/29 02:45:59;;;;;;;288.63;88.75;;;0.90;99.90;;;;;;5132008;27;20047;-82
2024/02/29 02:48:48;;;;;;;280.90;86.70;;;0.90;99.90;;;;;;5116118;27;21041;-78
2024/02/29 02:51:36;;;;;;;259.75;84.05;;;1.00;99.90;;;;;;5119722;28;20126;-76
2024/02/29 02:54:24;;;;;;;296.75;87.30;;;0.90;99.90;;;;;;5112392;28;20043;-77
2024/02/29 02:57:12;;;;;;;252.90;82.07;;;0.80;99.90;;;;;;5116423;28;20067;-77
2024/02/29 02:59:59;;;;;;;260.98;82.82;;;0.60;99.90;;;;;;5132732;28;20032;-77
2024/02/29 03:02:48;;;;;;;257.65;79.65;;;0.50;99.90;;;;;;5125472;28;20063;-78
2024/02/29 03:05:35;;;;;;;261.92;80.07;;;0.50;99.90;;;;;;5112006;28;20123;-77
2024/02/29 03:08:23;;;;;;;254.77;81.00;;;0.40;99.90;;;;;;5120680;28;20101;-79
2024/02/29 03:11:11;;;;;;;260.70;79.45;;;0.40;99.90;;;;;;5121260;28;20040;-76
2024/02/29 03:13:58;;;;;;;261.75;80.13;;;0.40;99.90;;;;;;5115104;28;20043;-75
2024/02/29 03:16:46;;;;;;;267.17;78.32;;;0.40;99.90;;;;;;5118231;28;20032;-78
2024/02/29 03:19:33;;;;;;;291.45;81.28;;;0.30;99.90;;;;;;5122082;28;20059;-78
2024/02/29 03:22:24;;;;;;;258.30;71.35;;;0.20;99.90;;;;;;5119476;28;20163;-78
2024/02/29 03:25:13;;;;;;;240.13;70.47;;;0.00;99.90;;;;;;5117536;28;20346;-76
2024/02/29 03:28:02;;;;;;;249.43;69.60;;;-0.10;99.90;;;;;;5122281;28;20400;-77
2024/02/29 03:30:50;;;;;;;229.75;67.63;;;-0.30;99.90;;;;;;5123372;28;20085;-78
2024/02/29 03:33:38;;;;;;;242.93;65.35;;;-0.50;99.90;;;;;;5111418;28;20070;-79
2024/02/29 03:36:27;;;;;;;229.75;62.85;;;-0.60;99.90;;;;;;5126116;28;20032;-76
2024/02/29 03:39:17;;;;;;;239.23;63.72;;;-0.80;99.90;;;;;;5120521;28;20043;-74
2024/02/29 03:42:06;;;;;;;238.52;67.13;;;-0.80;99.90;;;;;;5124751;28;20044;-82
2024/02/29 03:44:54;;;;;;;219.65;62.83;;;-0.90;99.90;;;;;;5117649;27;20035;-76
2024/02/29 03:47:44;;;;;;;225.55;63.60;;;-0.80;99.90;;;;;;5116008;28;20032;-76
2024/02/29 03:50:31;;;;;;;231.60;64.90;;;-0.70;99.90;;;;;;5098452;28;20099;-81
2024/02/29 03:53:20;;;;;;;215.45;66.25;;;-0.80;99.90;;;;;;5104215;28;20119;-80
2024/02/29 03:56:08;;;;;;;248.98;67.22;;;-0.80;99.90;;;;;;5101996;28;20043;-78
2024/02/29 03:58:55;;;;;;;249.82;69.53;;;-0.90;99.90;;;;;;5103634;28;20048;-76
2024/02/29 04:01:47;;;;;;;212.15;66.50;;;-1.00;99.90;;;;;;5118498;28;20075;-81
2024/02/29 04:04:35;;;;;;;244.13;71.80;;;-1.10;99.90;;;;;;5107027;28;20040;-80
2024/02/29 04:07:23;;;;;;;230.93;70.20;;;-1.10;99.90;;;;;;5119147;28;20086;-74
2024/02/29 04:10:11;;;;;;;220.60;66.25;;;-1.10;99.90;;;;;;5124848;27;20046;-77
2024/02/29 04:13:00;;;;;;;228.68;66.18;;;-1.00;99.90;;;;;;5114803;27;20529;-79
2024/02/29 04:15:47;;;;;;;250.65;68.43;;;-1.10;99.90;;;;;;5112923;28;20051;-77
2024/02/29 04:18:36;;;;;;;228.93;67.57;;;-1.10;99.90;;;;;;5124711;28;20090;-78
2024/02/29 04:21:23;;;;;;;237.38;69.45;;;-1.10;99.90;;;;;;5115115;27;20060;-76
2024/02/29 04:24:12;;;;;;;234.15;68.95;;;-1.10;99.90;;;;;;5126333;27;20036;-79
2024/02/29 04:26:59;;;;;;;265.27;72.82;;;-1.20;99.90;;;;;;5109536;27;20105;-78
2024/02/29 04:29:46;;;;;;;253.70;70.82;;;-1.20;99.90;;;;;;5116853;27;20032;-77
2024/02/29 04:32:34;;;;;;;240.73;66.75;;;-1.20;99.90;;;;;;5107626;28;20047;-75
2024/02/29 04:35:21;;;;;;;253.95;69.80;;;-1.20;99.90;;;;;;5103282;28;20077;-77
2024/02/29 04:38:09;;;;;;;226.85;67.95;;;-1.20;99.90;;;;;;5124522;27;20092;-80
2024/02/29 04:40:58;;;;;;;223.93;69.07;;;-1.20;99.90;;;;;;5099004;27;20055;-80
2024/02/29 04:43:51;;;;;;;230.63;68.22;;;-1.20;99.90;;;;;;5119967;27;20060;-77
2024/02/29 04:46:41;;;;;;;222.95;67.57;;;-1.20;99.90;;;;;;5123971;27;20077;-78
2024/02/29 04:49:29;;;;;;;241.50;68.85;;;-1.30;99.90;;;;;;5119018;27;20095;-79
2024/02/29 04:52:17;;;;;;;244.90;70.45;;;-1.20;99.90;;;;;;5116596;27;20054;-78
2024/02/29 04:55:06;;;;;;;247.32;69.32;;;-1.00;99.90;;;;;;5117281;27;20096;-81
2024/02/29 04:57:53;;;;;;;235.30;70.65;;;-1.00;99.90;;;;;;5126359;27;20201;-75
2024/02/29 05:00:42;;;;;;;246.68;65.75;;;-1.00;99.90;;;;;;5113656;28;20062;-79
2024/02/29 05:03:30;;;;;;;243.77;65.20;;;-1.00;99.90;;;;;;5119848;27;20044;-80
2024/02/29 05:06:19;;;;;;;245.15;64.50;;;-1.00;99.90;;;;;;5130297;27;20051;-77
2024/02/29 05:09:06;;;;;;;230.20;64.60;;;-1.00;99.90;;;;;;5120244;27;20055;-77
2024/02/29 05:11:54;;;;;;;198.27;63.35;;;-1.10;99.90;;;;;;5129216;27;20039;-79
2024/02/29 05:14:41;;;;;;;226.68;65.15;;;-1.10;99.90;;;;;;5119155;27;20043;-77
2024/02/29 05:17:30;;;;;;;234.57;65.05;;;-1.10;99.90;;;;;;5108323;28;20111;-79
2024/02/29 05:20:17;;;;;;;235.50;64.25;;;-1.20;99.90;;;;;;5117619;27;20039;-78
2024/02/29 05:23:05;;;;;;;212.27;62.83;;;-1.30;99.90;;;;;;5118748;27;20107;-76
2024/02/29 05:25:53;;;;;;;225.85;66.05;;;-1.40;99.90;;;;;;5120641;27;20031;-77
2024/02/29 05:28:40;;;;;;;215.32;61.17;;;-1.50;99.90;;;;;;5115612;28;20074;-79
2024/02/29 05:31:28;;;;;;;198.82;62.25;;;-1.40;99.90;;;;;;5088295;27;20058;-80
2024/02/29 05:34:20;;;;;;;231.82;65.70;;;-1.40;99.90;;;;;;5101579;28;20031;-78
2024/02/29 05:37:08;;;;;;;222.15;63.42;;;-1.40;99.90;;;;;;5120538;27;20481;-78
2024/02/29 05:39:58;;;;;;;218.48;64.90;;;-1.50;99.90;;;;;;5113780;27;20042;-79
2024/02/29 05:42:46;;;;;;;203.07;63.50;;;-1.60;99.90;;;;;;5099533;27;20040;-77
2024/02/29 05:45:34;;;;;;;207.80;64.03;;;-1.60;99.90;;;;;;5122546;27;20334;-76
2024/02/29 05:48:21;;;;;;;223.07;64.30;;;-1.70;99.90;;;;;;5105154;28;20047;-74
2024/02/29 05:51:11;;;;;;;231.25;64.72;;;-1.70;99.90;;;;;;5115161;28;20059;-77
2024/02/29 05:54:00;;;;;;;227.70;67.13;;;-1.60;99.90;;;;;;5123969;27;20044;-78
2024/02/29 05:56:51;;;;;;;229.38;67.20;;;-1.50;99.90;;;;;;5089289;27;20047;-77
2024/02/29 05:59:38;;;;;;;214.77;66.05;;;-1.40;99.90;;;;;;5107757;27;20053;-77
2024/02/29 06:02:30;;;;;;;219.10;65.05;;;-1.40;99.90;;;;;;5113662;27;20903;-77
2024/02/29 06:05:19;;;;;;;227.27;64.65;;;-1.40;99.90;;;;;;5117208;27;20104;-77
2024/02/29 06:08:07;;;;;;;234.40;69.32;;;-1.40;99.90;;;;;;5104738;28;20051;-78
2024/02/29 06:10:54;;;;;;;232.35;68.72;;;-1.50;99.90;;;;;;5115300;28;21118;-79
2024/02/29 06:13:43;;;;;;;258.42;74.38;;;-1.50;99.90;;;;;;5093322;28;20054;-76
2024/02/29 06:16:31;;;;;;;232.68;68.88;;;-1.50;99.90;;;;;;5104159;27;20054;-81
2024/02/29 06:19:19;;;;;;;256.50;73.80;;;-1.40;99.90;;;;;;5095944;27;20042;-81
2024/02/29 06:22:08;;;;;;;256.48;72.63;;;-1.30;99.90;;;;;;5103126;27;20043;-76
2024/02/29 06:24:56;;;;;;;257.00;72.32;;;-1.20;99.90;;;;;;5109166;28;20040;-77
2024/02/29 06:27:44;;;;;;;250.18;72.90;;;-1.20;99.90;;;;;;5113750;28;20051;-78
2024/02/29 06:30:34;;;;;;;269.05;74.45;;;-1.10;99.90;;;;;;5123220;28;20048;-79
2024/02/29 06:33:22;;;;;;;286.70;76.30;;;-1.10;99.90;;;;;;5114534;28;21427;-77
2024/02/29 06:36:10;;;;;;;262.48;78.53;;;-1.00;99.90;;;;;;5126293;27;20024;-79
2024/02/29 06:38:57;;;;;;;245.35;77.20;;;-0.90;99.90;;;;;;5114965;28;20065;-78
2024/02/29 06:41:45;;;;;;;264.77;80.57;;;-0.90;99.90;;;;;;5127710;27;20101;-78
2024/02/29 06:44:33;;;;;;;262.33;77.50;;;-0.80;99.90;;;;;;5106390;28;20099;-81
2024/02/29 06:47:20;;;;;;;254.68;75.85;;;-0.80;99.90;;;;;;5122092;28;20035;-79
2024/02/29 06:50:09;;;;;;;259.33;76.60;;;-0.70;99.90;;;;;;5118643;28;20041;-81
2024/02/29 06:52:57;;;;;;;284.17;81.40;;;-0.60;99.90;;;;;;5114284;28;20081;-79
2024/02/29 06:55:45;;;;;;;283.90;79.55;;;-0.40;99.90;;;;;;5091103;28;20089;-80
2024/02/29 06:58:33;;;;;;;250.23;69.95;;;-0.10;99.90;;;;;;5112055;28;20039;-81
2024/02/29 07:01:21;;;;;;;248.85;72.50;;;0.10;99.90;;;;;;5116944;28;20077;-80
2024/02/29 07:04:08;;;;;;;236.45;68.68;;;0.20;99.90;;;;;;5116424;28;20044;-79
2024/02/29 07:06:56;;;;;;;263.50;72.38;;;0.30;99.90;;;;;;5131733;28;20048;-77
2024/02/29 07:09:44;;;;;;;283.75;76.40;;;0.70;99.90;;;;;;5112340;28;20028;-78
2024/02/29 07:12:32;;;;;;;262.38;70.35;;;1.00;99.90;;;;;;5127830;27;20061;-81
2024/02/29 07:15:20;;;;;;;223.93;68.70;;;1.30;99.90;;;;;;5110505;28;20051;-81
2024/02/29 07:18:08;;;;;;;214.52;64.05;;;1.50;99.90;;;;;;5102456;28;20095;-81
2024/02/29 07:20:55;;;;;;;227.80;63.83;;;1.60;99.90;;;;;;5111667;28;20019;-79
2024/02/29 07:23:43;;;;;;;199.13;59.30;;;1.70;99.90;;;;;;5117002;27;20068;-79
2024/02/29 07:26:31;;;;;;;200.45;60.53;;;1.80;99.90;;;;;;5103946;28;20036;-81
2024/02/29 07:29:19;;;;;;;211.98;61.95;;;2.10;99.90;;;;;;5118482;27;20054;-78
2024/02/29 07:32:07;;;;;;;190.38;58.90;;;2.40;99.90;;;;;;5110618;28;20048;-79
2024/02/29 07:34:55;;;;;;;164.73;54.45;;;2.10;99.90;;;;;;5104377;28;20048;-81
2024/02/29 07:37:46;;;;;;;185.52;60.92;;;2.10;99.90;;;;;;5112321;28;20456;-81
2024/02/29 07:40:33;;;;;;;177.75;57.17;;;2.70;99.90;;;;;;5113338;28;20043;-79
2024/02/29 07:43:21;;;;;;;161.23;56.55;;;2.90;99.90;;;;;;5116325;27;20040;-82
2024/02/29 07:46:08;;;;;;;154.38;57.03;;;3.20;99.90;;;;;;5111197;27;20095;-78
2024/02/29 07:48:56;;;;;;;154.32;57.90;;;3.60;99.90;;;;;;5106829;28;20067;-76
2024/02/29 07:51:44;;;;;;;187.63;62.35;;;3.20;99.90;;;;;;5106265;27;20044;-79
2024/02/29 07:54:34;;;;;;;178.10;63.15;;;3.00;99.90;;;;;;5115210;27;20615;-81
2024/02/29 07:57:24;;;;;;;195.40;66.25;;;3.10;99.90;;;;;;5114779;27;20040;-80
2024/02/29 08:00:12;;;;;;;201.35;67.45;;;3.00;99.90;;;;;;5110472;27;20046;-80
2024/02/29 08:03:00;;;;;;;201.85;67.93;;;2.90;99.90;;;;;;5102887;27;20043;-79
2024/02/29 08:05:49;;;;;;;205.05;75.00;;;2.70;99.90;;;;;;5108734;28;20038;-81
2024/02/29 08:08:38;;;;;;;198.70;78.53;;;2.80;99.90;;;;;;5111495;27;20063;-81
2024/02/29 08:11:25;;;;;;;199.90;76.32;;;2.80;99.90;;;;;;5102810;27;20093;-78
2024/02/29 08:14:14;;;;;;;175.82;70.53;;;2.80;99.90;;;;;;5100047;27;20566;-81
2024/02/29 08:17:06;;;;;;;164.50;64.60;;;3.00;99.90;;;;;;5089560;28;20123;-80
2024/02/29 08:19:54;;;;;;;149.95;63.42;;;3.40;99.90;;;;;;5099335;27;20039;-79
2024/02/29 08:22:43;;;;;;;134.07;58.50;;;4.10;99.90;;;;;;5106216;27;20047;-78
2024/02/29 08:25:30;;;;;;;114.90;52.58;;;4.60;99.90;;;;;;5103849;27;20043;-82
2024/02/29 08:28:18;;;;;;;84.82;41.78;;;5.10;99.90;;;;;;5107673;27;20118;-80
2024/02/29 08:31:06;;;;;;;74.50;37.42;;;5.50;99.90;;;;;;5089666;27;20051;-81
2024/02/29 08:33:54;;;;;;;66.32;35.72;;;5.80;99.90;;;;;;5112236;27;20079;-80
2024/02/29 08:36:42;;;;;;;64.93;35.45;;;6.00;99.90;;;;;;5104080;28;20059;-79
2024/02/29 08:39:33;;;;;;;52.85;29.60;;;6.60;99.90;;;;;;5111559;27;20584;-80
2024/02/29 08:42:21;;;;;;;54.08;29.42;;;7.60;99.90;;;;;;5104459;27;20035;-78
2024/02/29 08:45:11;;;;;;;56.33;31.17;;;8.10;99.90;;;;;;5104228;27;20040;-79
2024/02/29 08:48:00;;;;;;;51.17;29.63;;;8.80;99.90;;;;;;5091458;28;20492;-80
2024/02/29 08:50:50;;;;;;;53.92;30.27;;;8.70;1.00;;;;;;5089995;27;20124;-82
2024/02/29 08:53:39;;;;;;;51.05;28.38;;;9.20;1.00;;;;;;5094257;28;20079;-82
2024/02/29 08:56:28;;;;;;;55.72;28.05;;;9.30;99.90;;;;;;5106762;27;20070;-79
2024/02/29 08:59:16;;;;;;;49.30;27.55;;;9.20;1.00;;;;;;5110451;27;20070;-80
2024/02/29 09:02:05;;;;;;;51.20;26.75;;;9.00;99.90;;;;;;5105594;27;20184;-81
2024/02/29 09:04:55;;;;;;;50.60;27.60;;;9.20;1.00;;;;;;5084409;28;20038;-81
2024/02/29 09:07:45;;;;;;;47.97;28.05;;;8.90;99.90;;;;;;5103860;27;20137;-81
2024/02/29 09:10:33;;;;;;;52.22;28.25;;;8.60;99.90;;;;;;5103195;28;20047;-80
2024/02/29 09:13:20;;;;;;;53.58;30.55;;;8.20;99.90;;;;;;5101497;27;20557;-80
2024/02/29 09:16:21;;;;;;;49.75;27.77;;;8.30;48.10;;;;;;5103622;27;20063;-80
2024/02/29 09:19:08;;;;;;;47.53;27.02;;;8.60;1.00;;;;;;5099656;27;20444;-82
2024/02/29 09:21:56;;;;;;;50.97;26.58;;;8.90;1.00;;;;;;5103767;27;20047;-81
2024/02/29 09:24:45;;;;;;;49.83;26.85;;;9.40;1.00;;;;;;5099993;27;20050;-77
2024/02/29 09:27:34;;;;;;;49.80;26.83;;;9.90;1.00;;;;;;5092437;28;20073;-80
2024/02/29 09:30:22;;;;;;;43.92;25.83;;;10.40;1.00;;;;;;5111948;27;20084;-82
2024/02/29 09:33:09;;;;;;;44.78;26.40;;;10.60;99.90;;;;;;5103631;27;20052;-81
2024/02/29 09:35:57;;;;;;;42.63;24.83;;;10.70;99.90;;;;;;5086489;28;20059;-79
2024/02/29 09:38:45;;;;;;;40.63;25.70;;;11.10;99.90;;;;;;5118333;27;20069;-78
2024/02/29 09:41:33;;;;;;;61.05;32.97;;;11.40;99.90;;;;;;5106288;27;20039;-79
2024/02/29 09:44:44;;;;;;;40.78;25.08;;;11.50;99.90;;;;;;5128260;27;20052;-79
2024/02/29 09:47:35;;;;;;;42.13;25.10;;;12.10;99.90;;;;;;5113242;27;20104;-81
2024/02/29 09:50:22;;;;;;;43.47;26.00;;;12.90;99.90;;;;;;5103034;27;20594;-82
2024/02/29 09:53:11;;;;;;;44.03;24.83;;;12.80;99.90;;;;;;5101070;27;20209;-80
2024/02/29 09:56:03;;;;;;;39.85;25.48;;;12.80;99.90;;;;;;5091957;28;20046;-82
2024/02/29 09:58:54;;;;;;;45.85;25.60;;;13.40;99.90;;;;;;5104979;27;20122;-82
2024/02/29 10:01:54;;;;;;;40.53;24.00;;;13.40;99.90;;;;;;5107073;27;22203;-81
2024/02/29 10:04:45;;;;;;;39.63;24.38;;;13.40;99.90;;;;;;5109714;27;20027;-77
2024/02/29 10:07:44;;;;;;;35.45;23.60;;;14.20;99.90;;;;;;5086627;28;20115;-82
2024/02/29 10:10:33;;;;;;;37.03;23.20;;;14.90;99.90;;;;;;5099444;28;20051;-80
2024/02/29 10:13:20;;;;;;;34.60;22.83;;;15.30;99.90;;;;;;5091484;27;20091;-79
2024/02/29 10:16:09;;;;;;;33.88;21.15;;;15.80;99.90;;;;;;5107425;27;20257;-76
2024/02/29 10:19:00;;;;;;;34.33;22.88;;;16.40;99.90;;;;;;5104113;27;20043;-77
2024/02/29 10:21:49;;;;;;;35.80;22.23;;;16.10;97.10;;;;;;5124346;27;20464;-77
2024/02/29 10:24:37;;;;;;;37.83;24.60;;;16.80;94.10;;;;;;5132959;27;20055;-80
2024/02/29 10:27:25;;;;;;;38.85;24.30;;;16.50;71.70;;;;;;5095237;27;20093;-78
2024/02/29 10:30:18;;;;;;;33.75;22.48;;;15.60;57.90;;;;;;5124442;27;20040;-78
2024/02/29 10:33:10;;;;;;;36.50;22.90;;;16.20;59.20;;;;;;5084731;28;20032;-77
2024/02/29 10:36:10;;;;;;;34.30;22.80;;;15.90;60.00;;;;;;5113738;28;20101;-75
2024/02/29 10:38:58;;;;;;;33.33;22.27;;;16.00;45.10;;;;;;5102443;28;20513;-82
2024/02/29 10:41:51;;;;;;;32.30;22.17;;;17.00;44.10;;;;;;5093586;27;20105;-80
2024/02/29 10:44:42;;;;;;;32.13;21.40;;;17.20;31.40;;;;;;5090274;28;20125;-80
2024/02/29 10:47:32;;;;;;;33.72;23.08;;;17.40;29.50;;;;;;5084211;28;20572;-78
2024/02/29 10:50:25;;;;;;;35.90;21.80;;;17.50;21.70;;;;;;5100221;27;20058;-82
2024/02/29 10:53:27;;;;;;;33.80;22.08;;;16.70;17.90;;;;;;5098180;27;20066;-80
2024/02/29 10:56:27;;;;;;;35.80;23.33;;;17.20;13.80;;;;;;5097373;28;20151;-81
2024/02/29 10:59:19;;;;;;;35.08;21.75;;;16.40;9.20;;;;;;5096099;28;20059;-80
2024/02/29 11:02:07;;;;;;;34.45;22.85;;;16.20;13.10;;;;;;5099357;28;20043;-82
2024/02/29 11:04:55;;;;;;;34.72;22.35;;;17.30;19.20;;;;;;5101198;28;20124;-81
2024/02/29 11:07:44;;;;;;;31.27;20.40;;;18.10;3.50;;;;;;5100628;28;20120;-80
2024/02/29 11:10:32;;;;;;;35.35;21.10;;;18.50;3.50;;;;;;5096078;28;20067;-81
2024/02/29 11:13:21;;;;;;;31.98;21.65;;;19.00;1.00;;;;;;5097696;28;20055;-80
2024/02/29 11:16:14;;;;;;;31.00;21.42;;;19.30;1.00;;;;;;5104643;28;20055;-81
2024/02/29 11:19:02;;;;;;;;;;;18.70;1.00;;;;;;5090808;27;20039;-80
2024/02/29 11:21:49;;;;;;;34.30;22.30;;;17.30;1.00;;;;;;5119170;27;19930;-82
2024/02/29 11:24:39;;;;;;;37.17;22.33;;;17.30;1.00;;;;;;5105805;27;20187;-80
2024/02/29 11:27:33;;;;;;;33.97;22.02;;;17.10;1.00;;;;;;5097049;27;20135;-79
2024/02/29 11:30:23;;;;;;;32.25;21.00;;;17.00;1.00;;;;;;5095200;27;20035;-81
2024/02/29 11:33:12;;;;;;;31.23;19.83;;;16.50;1.00;;;;;;5107452;27;20040;-78
2024/02/29 11:36:03;;;;;;;31.75;19.92;;;16.20;1.00;;;;;;5111980;27;20051;-78
2024/02/29 11:38:51;;;;;;;29.90;19.60;;;16.70;1.00;;;;;;5109307;27;20122;-79
2024/02/29 11:41:39;;;;;;;29.98;19.23;;;17.90;1.00;;;;;;5087180;27;21232;-80
2024/02/29 11:44:33;;;;;;;30.45;19.70;;;19.20;1.00;;;;;;5105351;27;20044;-81
2024/02/29 11:47:20;;;;;;;25.95;18.42;;;19.90;1.00;;;;;;5108750;27;20117;-80
2024/02/29 11:50:08;;;;;;;26.50;17.83;;;20.80;1.00;;;;;;5096429;28;20121;-77
2024/02/29 11:53:00;;;;;;;26.63;17.95;;;20.80;1.00;;;;;;5110613;28;20054;-78
2024/02/29 11:55:48;;;;;;;28.33;19.08;;;20.20;1.00;;;;;;5109361;27;20048;-80
2024/02/29 11:58:49;;;;;;;27.67;19.13;;;16.90;1.00;;;;;;5094402;28;20174;-80
2024/02/29 12:01:37;;;;;;;26.40;17.85;;;16.00;1.00;;;;;;5112911;27;20149;-77
2024/02/29 12:04:29;;;;;;;29.77;18.48;;;16.30;1.00;;;;;;5099902;27;20032;-79
2024/02/29 12:07:17;;;;;;;29.80;19.77;;;17.00;1.00;;;;;;5102972;27;20110;-80
2024/02/29 12:10:05;;;;;;;29.75;19.27;;;16.40;1.00;;;;;;5114546;27;20044;-79
2024/02/29 12:12:53;;;;;;;28.05;19.10;;;16.40;1.00;;;;;;5104238;27;20101;-81
2024/02/29 12:15:40;;;;;;;30.45;19.10;;;16.80;1.00;;;;;;5100673;27;20058;-79
2024/02/29 12:18:28;;;;;;;28.73;18.92;;;16.70;1.00;;;;;;5116196;27;20047;-80
2024/02/29 12:21:17;;;;;;;28.10;18.30;;;17.40;1.00;;;;;;5095282;27;20039;-80
2024/02/29 12:24:07;;;;;;;28.70;18.35;;;18.40;1.00;;;;;;5109943;27;20032;-78
2024/02/29 12:26:55;;;;;;;27.98;18.77;;;17.80;1.00;;;;;;5121243;27;20107;-81
2024/02/29 12:29:43;;;;;;;28.65;16.95;;;17.10;1.00;;;;;;5112394;28;20065;-80
2024/02/29 12:32:31;;;;;;;26.98;16.08;;;18.10;1.00;;;;;;5122803;27;20028;-80
2024/02/29 12:35:22;;;;;;;27.98;18.30;;;19.70;1.00;;;;;;5119628;27;20101;-77
2024/02/29 12:38:14;;;;;;;26.65;17.08;;;19.30;1.00;;;;;;5122082;27;20047;-79
2024/02/29 12:41:05;;;;;;;26.23;17.08;;;18.70;1.00;;;;;;5114771;27;20046;-76
2024/02/29 12:43:59;;;;;;;25.83;17.25;;;18.80;1.00;;;;;;5111948;28;20492;-80
2024/02/29 12:46:52;;;;;;;23.00;16.02;;;18.60;1.00;;;;;;5084747;28;20046;-80
2024/02/29 12:49:41;;;;;;;22.95;16.20;;;18.70;1.00;;;;;;5092417;27;20062;-80
2024/02/29 12:52:31;;;;;;;23.05;16.52;;;19.70;1.00;;;;;;5089388;27;20050;-82
2024/02/29 12:55:22;;;;;;;21.35;14.60;;;20.60;1.00;;;;;;5100279;27;20080;-81
2024/02/29 12:58:13;;;;;;;24.23;15.38;;;21.60;1.00;;;;;;5112823;27;20142;-75
2024/02/29 13:01:03;;;;;;;21.83;16.10;;;21.30;1.00;;;;;;5096955;27;20255;-81
2024/02/29 13:03:51;;;;;;;22.15;15.80;;;21.30;1.00;;;;;;5113568;27;20047;-81
2024/02/29 13:06:39;;;;;;;22.38;15.85;;;21.90;1.00;;;;;;5102932;28;20321;-81
2024/02/29 13:09:27;;;;;;;26.23;15.23;;;21.70;1.00;;;;;;5107585;27;20044;-80
2024/02/29 13:12:14;;;;;;;21.02;15.18;;;22.00;1.00;;;;;;5104802;27;20052;-78
2024/02/29 13:15:04;;;;;;;23.70;15.68;;;21.30;1.00;;;;;;5105669;27;20048;-79
2024/02/29 13:17:53;;;;;;;21.10;14.55;;;20.50;1.00;;;;;;5107476;27;20036;-78
2024/02/29 13:20:42;;;;;;;20.05;14.20;;;20.50;1.00;;;;;;5117735;27;20052;-80
2024/02/29 13:23:29;;;;;;;21.05;14.50;;;21.50;1.00;;;;;;5107101;27;20051;-79
2024/02/29 13:26:17;;;;;;;19.08;14.13;;;20.80;1.00;;;;;;5094176;28;20131;-81
2024/02/29 13:29:04;;;;;;;20.25;13.50;;;20.30;1.00;;;;;;5088080;28;20118;-81
2024/02/29 13:31:52;;;;;;;17.48;12.63;;;20.80;1.00;;;;;;5101994;27;20043;-80
2024/02/29 13:34:40;;;;;;;23.50;14.52;;;21.10;1.00;;;;;;5105749;27;20043;-79
2024/02/29 13:37:28;;;;;;;21.38;15.25;;;20.50;1.00;;;;;;5111442;27;20104;-78
2024/02/29 13:40:16;;;;;;;20.73;14.35;;;20.00;1.00;;;;;;5107919;28;20040;-77
2024/02/29 13:43:04;;;;;;;20.75;14.50;;;19.10;1.00;;;;;;5098368;28;20377;-80
2024/02/29 13:45:52;;;;;;;22.20;14.27;;;19.10;1.00;;;;;;5095769;28;20031;-81
2024/02/29 13:48:43;;;;;;;19.48;13.32;;;19.20;1.00;;;;;;5116337;27;20052;-79
2024/02/29 13:51:33;;;;;;;17.80;11.93;;;18.80;1.00;;;;;;5112221;27;20107;-79
2024/02/29 13:54:21;;;;;;;17.70;12.40;;;19.50;1.00;;;;;;5106947;27;20040;-81
2024/02/29 13:57:08;;;;;;;18.42;12.27;;;19.30;1.00;;;;;;5111312;27;20067;-78
2024/02/29 13:59:57;;;;;;;19.95;12.82;;;19.30;1.00;;;;;;5115728;27;20115;-77
2024/02/29 14:02:45;;;;;;;15.63;11.55;;;19.30;1.00;;;;;;5119696;27;20475;-79
2024/02/29 14:05:33;;;;;;;14.65;10.07;;;19.60;1.00;;;;;;5102938;27;20043;-81
2024/02/29 14:08:21;;;;;;;16.42;11.43;;;19.50;1.00;;;;;;5088661;27;20538;-81
2024/02/29 14:11:09;;;;;;;16.17;11.32;;;19.10;1.00;;;;;;5075110;27;20154;-80
2024/02/29 14:13:56;;;;;;;15.00;10.35;;;19.20;1.00;;;;;;5103426;27;20495;-80
2024/02/29 14:16:44;;;;;;;21.70;11.82;;;19.30;1.00;;;;;;5092108;27;20237;-80